createdAt,value
2022-08-08T00:02:15.346Z,21.66
2022-08-08T00:04:49.297Z,21.76
2022-08-08T00:07:23.395Z,21.69
2022-08-08T00:10:02.604Z,21.67
2022-08-08T00:12:32.962Z,21.63
2022-08-08T00:15:13.079Z,21.66
2022-08-08T00:18:02.971Z,21.52
2022-08-08T00:20:37.536Z,21.82
2022-08-08T00:23:08.308Z,21.67
2022-08-08T00:25:46.367Z,21.53
2022-08-08T00:28:35.638Z,21.60
2022-08-08T00:32:20.908Z,21.69
2022-08-08T00:34:31.035Z,21.59
2022-08-08T00:37:45.162Z,21.37
2022-08-08T00:41:12.289Z,21.64
2022-08-08T00:43:19.658Z,21.57
2022-08-08T00:45:58.673Z,21.61
2022-08-08T00:49:00.818Z,21.52
2022-08-08T00:52:19.639Z,21.68
2022-08-08T00:55:08.945Z,21.37
2022-08-08T00:58:17.911Z,21.38
2022-08-08T01:00:55.764Z,21.46
2022-08-08T01:04:04.659Z,21.56
2022-08-08T01:07:08.747Z,21.49
2022-08-08T01:10:31.801Z,21.44
2022-08-08T01:13:23.019Z,21.33
2022-08-08T01:16:38.490Z,21.14
2022-08-08T01:20:03.254Z,21.21
2022-08-08T01:24:05.255Z,21.37
2022-08-08T01:26:36.617Z,21.30
2022-08-08T01:29:35.463Z,21.24
2022-08-08T01:32:44.848Z,21.22
2022-08-08T01:36:03.117Z,21.11
2022-08-08T01:38:54.818Z,21.38
2022-08-08T01:41:34.421Z,21.20
2022-08-08T01:44:27.184Z,21.23
2022-08-08T01:48:13.962Z,21.08
2022-08-08T01:50:05.391Z,21.11
2022-08-08T01:54:05.482Z,20.85
2022-08-08T01:56:29.877Z,21.08
2022-08-08T01:58:46.997Z,21.14
2022-08-08T02:02:00.514Z,21.15
2022-08-08T02:04:38.011Z,20.93
2022-08-08T02:07:20.143Z,21.17
2022-08-08T02:10:11.755Z,21.25
2022-08-08T02:12:52.416Z,20.94
2022-08-08T02:15:34.929Z,21.02
2022-08-08T02:18:11.697Z,20.81
2022-08-08T02:21:13.214Z,20.99
2022-08-08T02:23:45.716Z,20.99
2022-08-08T02:26:18.241Z,20.88
2022-08-08T02:29:01.437Z,20.89
2022-08-08T02:31:58.080Z,20.97
2022-08-08T02:35:07.766Z,20.88
2022-08-08T02:37:53.076Z,20.87
2022-08-08T02:40:34.535Z,20.83
2022-08-08T02:44:42.989Z,20.57
2022-08-08T02:46:47.764Z,20.55
2022-08-08T02:49:51.819Z,20.71
2022-08-08T02:52:43.577Z,20.63
2022-08-08T02:56:01.681Z,20.81
2022-08-08T02:59:37.314Z,20.75
2022-08-08T03:02:50.472Z,20.52
2022-08-08T03:05:46.206Z,20.69
2022-08-08T03:09:03.066Z,20.49
2022-08-08T03:12:14.051Z,20.61
2022-08-08T03:16:01.150Z,20.33
2022-08-08T03:17:59.871Z,20.44
2022-08-08T03:20:51.596Z,20.50
2022-08-08T03:23:56.341Z,20.66
2022-08-08T03:26:27.138Z,20.68
2022-08-08T03:29:03.559Z,20.57
2022-08-08T03:32:05.993Z,20.53
2022-08-08T03:34:37.703Z,20.46
2022-08-08T03:37:59.675Z,20.42
2022-08-08T03:40:03.594Z,20.63
2022-08-08T03:42:33.827Z,20.41
2022-08-08T03:46:06.927Z,20.53
2022-08-08T03:47:59.862Z,20.16
2022-08-08T03:50:30.387Z,20.47
2022-08-08T03:53:03.853Z,20.39
2022-08-08T03:55:55.937Z,20.57
2022-08-08T03:58:35.588Z,20.29
2022-08-08T04:01:24.479Z,20.41
2022-08-08T04:03:59.688Z,20.26
2022-08-08T04:06:36.021Z,20.06
2022-08-08T04:09:11.347Z,20.29
2022-08-08T04:11:58.296Z,20.44
2022-08-08T04:14:36.453Z,20.57
2022-08-08T04:17:22.453Z,20.10
2022-08-08T04:19:57.316Z,20.11
2022-08-08T04:22:29.754Z,20.03
2022-08-08T04:24:59.135Z,20.12
2022-08-08T04:28:02.507Z,20.42
2022-08-08T04:30:19.607Z,20.17
2022-08-08T04:32:52.031Z,20.32
2022-08-08T04:35:27.073Z,20.31
2022-08-08T04:37:58.025Z,20.35
2022-08-08T04:40:39.529Z,20.21
2022-08-08T04:43:22.180Z,20.26
2022-08-08T04:45:54.795Z,20.37
2022-08-08T04:48:24.564Z,20.34
2022-08-08T04:50:54.807Z,20.40
2022-08-08T04:54:37.137Z,20.55
2022-08-08T04:56:17.984Z,20.49
2022-08-08T04:58:48.410Z,20.52
2022-08-08T05:01:20.121Z,20.43
2022-08-08T05:04:09.416Z,20.38
2022-08-08T05:06:43.105Z,20.32
2022-08-08T05:09:13.059Z,20.36
2022-08-08T05:11:47.740Z,20.28
2022-08-08T05:14:29.360Z,20.28
2022-08-08T05:17:02.151Z,20.26
2022-08-08T05:20:12.405Z,20.40
2022-08-08T05:22:31.493Z,20.41
2022-08-08T05:25:00.487Z,20.34
2022-08-08T05:27:32.993Z,20.21
2022-08-08T05:30:04.914Z,20.09
2022-08-08T05:32:44.318Z,20.52
2022-08-08T05:35:16.132Z,20.28
2022-08-08T05:37:54.015Z,20.24
2022-08-08T05:40:59.836Z,20.57
2022-08-08T05:44:02.158Z,20.39
2022-08-08T05:46:26.338Z,20.51
2022-08-08T05:48:56.305Z,20.54
2022-08-08T05:51:37.510Z,20.60
2022-08-08T05:54:27.387Z,20.53
2022-08-08T05:57:08.853Z,20.67
2022-08-08T05:59:59.910Z,20.82
2022-08-08T06:03:05.221Z,20.65
2022-08-08T06:05:45.367Z,20.61
2022-08-08T06:08:32.929Z,20.40
2022-08-08T06:11:08.505Z,20.40
2022-08-08T06:13:47.271Z,20.40
2022-08-08T06:16:25.085Z,20.37
2022-08-08T06:19:24.129Z,20.53
2022-08-08T06:21:57.403Z,20.72
2022-08-08T06:24:40.618Z,20.62
2022-08-08T06:27:24.966Z,20.70
2022-08-08T06:30:00.987Z,20.98
2022-08-08T06:32:42.650Z,21.10
2022-08-08T06:36:06.155Z,21.08
2022-08-08T06:38:09.340Z,21.02
2022-08-08T06:40:54.441Z,21.19
2022-08-08T06:43:34.322Z,21.08
2022-08-08T06:46:33.888Z,21.11
2022-08-08T06:49:17.813Z,21.09
2022-08-08T06:51:57.726Z,20.94
2022-08-08T06:54:34.241Z,20.97
2022-08-08T06:57:08.650Z,20.71
2022-08-08T07:00:10.689Z,20.72
2022-08-08T07:02:52.177Z,21.24
2022-08-08T07:05:41.768Z,21.10
2022-08-08T07:08:20.032Z,21.12
2022-08-08T07:11:00.381Z,21.34
2022-08-08T07:14:00.854Z,21.35
2022-08-08T07:16:54.742Z,21.47
2022-08-08T07:19:33.349Z,21.63
2022-08-08T07:22:11.639Z,21.62
2022-08-08T07:24:46.547Z,21.32
2022-08-08T07:27:17.462Z,21.58
2022-08-08T07:30:02.586Z,21.51
2022-08-08T07:32:42.518Z,21.23
2022-08-08T07:35:15.184Z,21.18
2022-08-08T07:38:05.036Z,20.87
2022-08-08T07:40:48.448Z,21.31
2022-08-08T07:43:32.398Z,20.94
2022-08-08T07:46:23.630Z,20.14
2022-08-08T07:49:00.118Z,20.06
2022-08-08T07:51:44.797Z,19.86
2022-08-08T07:54:29.683Z,19.85
2022-08-08T07:57:17.006Z,19.83
2022-08-08T07:59:52.426Z,19.78
2022-08-08T08:02:35.042Z,19.99
2022-08-08T08:05:15.176Z,19.68
2022-08-08T08:07:45.894Z,19.69
2022-08-08T08:10:18.197Z,19.77
2022-08-08T08:13:25.844Z,19.98
2022-08-08T08:16:17.382Z,20.09
2022-08-08T08:18:55.994Z,20.09
2022-08-08T08:21:44.730Z,19.97
2022-08-08T08:24:30.678Z,19.93
2022-08-08T08:27:02.787Z,19.93
2022-08-08T08:29:33.262Z,20.06
2022-08-08T08:32:05.688Z,20.02
2022-08-08T08:34:36.938Z,19.91
2022-08-08T08:37:15.536Z,20.00
2022-08-08T08:40:01.775Z,20.07
2022-08-08T08:42:36.841Z,20.10
2022-08-08T08:45:22.760Z,19.86
2022-08-08T08:47:58.699Z,20.10
2022-08-08T08:50:35.270Z,20.29
2022-08-08T08:53:27.899Z,20.03
2022-08-08T08:56:12.826Z,20.28
2022-08-08T08:58:46.907Z,20.17
2022-08-08T09:01:33.015Z,20.36
2022-08-08T09:04:03.097Z,20.33
2022-08-08T09:06:40.494Z,20.20
2022-08-08T09:09:35.161Z,20.25
2022-08-08T09:12:13.481Z,20.11
2022-08-08T09:14:45.208Z,20.22
2022-08-08T09:17:23.661Z,20.19
2022-08-08T09:21:58.544Z,20.13
2022-08-08T09:22:51.621Z,20.04
2022-08-08T09:25:47.484Z,20.04
2022-08-08T09:28:35.368Z,19.85
2022-08-08T09:31:12.820Z,20.15
2022-08-08T09:34:30.189Z,19.92
2022-08-08T09:36:36.203Z,20.10
2022-08-08T09:39:10.330Z,20.07
2022-08-08T09:42:14.966Z,19.50
2022-08-08T09:44:44.158Z,19.45
2022-08-08T09:48:04.669Z,19.44
2022-08-08T09:50:11.812Z,19.34
2022-08-08T09:53:12.475Z,19.32
2022-08-08T09:56:04.260Z,19.31
2022-08-08T09:58:28.353Z,19.55
2022-08-08T10:01:58.254Z,19.69
2022-08-08T10:04:10.365Z,19.47
2022-08-08T10:06:45.200Z,19.51
2022-08-08T10:09:30.952Z,19.46
2022-08-08T10:12:27.632Z,19.63
2022-08-08T10:15:01.842Z,19.51
2022-08-08T10:18:05.600Z,19.85
2022-08-08T10:20:51.305Z,19.75
2022-08-08T10:23:44.242Z,19.64
2022-08-08T10:26:30.744Z,19.62
2022-08-08T10:29:04.604Z,19.67
2022-08-08T10:31:53.028Z,19.26
2022-08-08T10:34:27.313Z,19.26
2022-08-08T10:36:59.816Z,19.52
2022-08-08T10:39:43.692Z,19.17
2022-08-08T10:42:20.805Z,19.18
2022-08-08T10:44:50.333Z,19.31
2022-08-08T10:47:21.179Z,19.64
2022-08-08T10:50:01.899Z,19.35
2022-08-08T10:52:32.491Z,19.33
2022-08-08T10:55:06.559Z,19.08
2022-08-08T10:57:45.279Z,19.27
2022-08-08T11:00:25.683Z,19.29
2022-08-08T11:02:54.659Z,18.86
2022-08-08T11:05:23.771Z,18.89
2022-08-08T11:08:31.678Z,18.97
2022-08-08T11:10:44.102Z,18.89
2022-08-08T11:13:29.075Z,18.94
2022-08-08T11:16:07.416Z,18.88
2022-08-08T11:18:37.353Z,18.96
2022-08-08T11:21:10.016Z,18.92
2022-08-08T11:23:43.066Z,18.91
2022-08-08T11:26:18.768Z,18.67
2022-08-08T11:28:50.206Z,18.89
2022-08-08T11:31:18.801Z,18.80
2022-08-08T11:34:03.134Z,18.78
2022-08-08T11:36:32.941Z,18.75
2022-08-08T11:39:06.109Z,18.99
2022-08-08T11:41:45.210Z,18.83
2022-08-08T11:44:15.765Z,19.00
2022-08-08T11:46:44.532Z,18.81
2022-08-08T11:49:14.003Z,18.91
2022-08-08T11:51:49.551Z,18.79
2022-08-08T11:54:32.421Z,19.14
2022-08-08T11:57:17.010Z,18.86
2022-08-08T12:00:01.827Z,18.96
2022-08-08T12:02:51.211Z,18.86
2022-08-08T12:05:22.883Z,19.01
2022-08-08T12:07:56.001Z,18.89
2022-08-08T12:10:27.112Z,18.98
2022-08-08T12:13:04.093Z,19.01
2022-08-08T12:15:42.136Z,19.18
2022-08-08T12:18:18.168Z,19.16
2022-08-08T12:20:53.163Z,18.92
2022-08-08T12:23:43.346Z,18.83
2022-08-08T12:26:27.196Z,19.00
2022-08-08T12:29:25.895Z,19.14
2022-08-08T12:32:13.443Z,19.01
2022-08-08T12:34:57.518Z,19.08
2022-08-08T12:37:41.173Z,19.13
2022-08-08T12:40:22.371Z,19.23
2022-08-08T12:42:51.322Z,19.50
2022-08-08T12:45:58.875Z,19.53
2022-08-08T12:48:36.871Z,19.64
2022-08-08T12:51:07.833Z,19.68
2022-08-08T12:53:47.982Z,19.74
2022-08-08T12:56:24.247Z,19.65
2022-08-08T12:58:55.299Z,19.84
2022-08-08T13:01:37.668Z,19.64
2022-08-08T13:04:25.814Z,19.65
2022-08-08T13:07:00.927Z,19.72
2022-08-08T13:09:57.601Z,19.79
2022-08-08T13:12:29.227Z,20.00
2022-08-08T13:14:59.773Z,20.01
2022-08-08T13:18:10.059Z,20.15
2022-08-08T13:20:22.180Z,19.86
2022-08-08T13:22:55.946Z,20.09
2022-08-08T13:25:36.630Z,19.84
2022-08-08T13:28:05.104Z,19.73
2022-08-08T13:30:33.506Z,19.98
2022-08-08T13:33:04.038Z,20.04
2022-08-08T13:35:39.073Z,19.96
2022-08-08T13:38:13.224Z,19.94
2022-08-08T13:40:44.923Z,19.96
2022-08-08T13:43:15.889Z,19.81
2022-08-08T13:45:47.606Z,20.09
2022-08-08T13:48:25.085Z,20.19
2022-08-08T13:50:57.838Z,19.89
2022-08-08T13:53:59.871Z,19.99
2022-08-08T13:56:31.011Z,20.06
2022-08-08T13:58:59.265Z,19.64
2022-08-08T14:01:41.821Z,19.51
2022-08-08T14:04:24.951Z,19.35
2022-08-08T14:06:59.588Z,19.21
2022-08-08T14:10:05.227Z,19.28
2022-08-08T14:12:28.011Z,19.42
2022-08-08T14:14:56.814Z,19.32
2022-08-08T14:17:58.489Z,19.38
2022-08-08T14:20:55.363Z,19.64
2022-08-08T14:23:10.333Z,19.54
2022-08-08T14:25:54.171Z,19.64
2022-08-08T14:28:29.046Z,19.66
2022-08-08T14:31:09.224Z,19.65
2022-08-08T14:33:39.164Z,19.52
2022-08-08T14:36:13.354Z,19.55
2022-08-08T14:38:52.742Z,19.40
2022-08-08T14:41:53.884Z,19.54
2022-08-08T14:44:13.233Z,19.48
2022-08-08T14:47:01.057Z,19.46
2022-08-08T14:49:37.771Z,19.38
2022-08-08T14:52:24.985Z,19.49
2022-08-08T14:54:53.244Z,19.64
2022-08-08T14:58:00.673Z,19.71
2022-08-08T15:00:10.973Z,19.69
2022-08-08T15:02:58.596Z,19.59
2022-08-08T15:05:43.150Z,19.59
2022-08-08T15:08:35.318Z,19.83
2022-08-08T15:11:09.498Z,19.83
2022-08-08T15:14:00.765Z,20.18
2022-08-08T15:16:34.595Z,19.72
2022-08-08T15:19:05.728Z,19.78
2022-08-08T15:21:42.450Z,20.04
2022-08-08T15:24:14.463Z,20.19
2022-08-08T15:26:52.629Z,20.22
2022-08-08T15:29:24.513Z,20.07
2022-08-08T15:32:03.835Z,20.07
2022-08-08T15:34:42.279Z,20.08
2022-08-08T15:37:10.540Z,20.26
2022-08-08T15:39:42.759Z,20.45
2022-08-08T15:42:17.670Z,20.32
2022-08-08T15:44:52.588Z,20.47
2022-08-08T15:47:22.600Z,20.50
2022-08-08T15:49:53.126Z,20.55
2022-08-08T15:52:23.450Z,20.48
2022-08-08T15:54:54.848Z,20.30
2022-08-08T15:57:23.600Z,20.49
2022-08-08T16:00:05.426Z,20.53
2022-08-08T16:02:44.203Z,20.67
2022-08-08T16:05:19.941Z,20.78
2022-08-08T16:07:52.335Z,20.58
2022-08-08T16:13:15.663Z,20.64
2022-08-08T16:13:33.576Z,20.83
2022-08-08T16:16:09.512Z,20.70
2022-08-08T16:18:53.318Z,20.67
2022-08-08T16:21:27.616Z,20.83
2022-08-08T16:23:56.498Z,21.05
2022-08-08T16:26:35.280Z,20.92
2022-08-08T16:29:07.863Z,21.06
2022-08-08T16:31:48.592Z,21.28
2022-08-08T16:34:19.059Z,21.84
2022-08-08T16:36:51.029Z,22.26
2022-08-08T16:39:59.423Z,22.59
2022-08-08T16:42:18.397Z,22.91
2022-08-08T16:44:54.765Z,22.61
2022-08-08T16:47:40.728Z,22.85
2022-08-08T16:50:15.290Z,23.53
2022-08-08T16:55:04.480Z,22.41
2022-08-08T16:55:53.154Z,22.52
2022-08-08T16:58:32.488Z,22.39
2022-08-08T17:01:05.612Z,22.35
2022-08-08T17:04:01.017Z,22.84
2022-08-08T17:06:36.911Z,23.28
2022-08-08T17:09:06.406Z,22.98
2022-08-08T17:11:48.280Z,22.29
2022-08-08T17:14:27.592Z,22.15
2022-08-08T17:17:03.749Z,22.10
2022-08-08T17:19:41.078Z,22.36
2022-08-08T17:22:11.074Z,22.57
2022-08-08T17:24:40.816Z,22.57
2022-08-08T17:27:10.366Z,22.01
2022-08-08T17:29:43.871Z,22.33
2022-08-08T17:32:28.830Z,22.17
2022-08-08T17:35:54.057Z,22.31
2022-08-08T17:37:53.192Z,21.85
2022-08-08T17:40:22.324Z,21.84
2022-08-08T17:42:55.209Z,21.65
2022-08-08T17:45:25.122Z,21.83
2022-08-08T17:47:57.617Z,21.80
2022-08-08T17:50:28.355Z,21.79
2022-08-08T17:52:57.589Z,21.46
2022-08-08T17:56:06.930Z,21.35
2022-08-08T17:58:18.257Z,21.45
2022-08-08T18:00:56.188Z,21.54
2022-08-08T18:03:27.756Z,21.57
2022-08-08T18:05:58.884Z,21.54
2022-08-08T18:08:41.042Z,21.49
2022-08-08T18:11:14.735Z,21.37
2022-08-08T18:13:46.075Z,21.34
2022-08-08T18:16:23.042Z,21.35
2022-08-08T18:18:57.385Z,21.19
2022-08-08T18:21:58.981Z,21.22
2022-08-08T18:24:19.340Z,21.20
2022-08-08T18:26:55.001Z,21.21
2022-08-08T18:29:30.065Z,21.17
2022-08-08T18:32:05.237Z,21.19
2022-08-08T18:34:34.207Z,21.30
2022-08-08T18:37:06.559Z,21.08
2022-08-08T18:39:38.550Z,21.21
2022-08-08T18:42:14.294Z,21.03
2022-08-08T18:44:54.898Z,21.24
2022-08-08T18:47:27.045Z,21.09
2022-08-08T18:49:58.900Z,20.94
2022-08-08T18:52:30.342Z,20.98
2022-08-08T18:55:10.933Z,21.05
2022-08-08T18:57:45.031Z,20.87
2022-08-08T19:00:19.534Z,20.84
2022-08-08T19:02:55.378Z,20.81
2022-08-08T19:05:32.143Z,20.87
2022-08-08T19:08:25.114Z,20.79
2022-08-08T19:10:59.308Z,20.90
2022-08-08T19:13:53.097Z,20.79
2022-08-08T19:16:19.480Z,20.82
2022-08-08T19:19:00.392Z,20.80
2022-08-08T19:21:33.858Z,20.90
2022-08-08T19:24:48.842Z,20.82
2022-08-08T19:27:14.818Z,21.18
2022-08-08T19:29:45.834Z,20.96
2022-08-08T19:32:19.516Z,21.11
2022-08-08T19:34:52.833Z,20.92
2022-08-08T19:37:43.936Z,21.07
2022-08-08T19:40:16.227Z,20.74
2022-08-08T19:42:47.704Z,20.84
2022-08-08T19:45:57.675Z,20.72
2022-08-08T19:48:05.559Z,20.68
2022-08-08T19:50:37.700Z,20.69
2022-08-08T19:53:46.959Z,20.57
2022-08-08T19:55:54.721Z,20.70
2022-08-08T19:58:24.188Z,20.80
2022-08-08T20:00:53.177Z,20.82
2022-08-08T20:04:01.625Z,20.66
2022-08-08T20:06:19.496Z,20.51
2022-08-08T20:08:48.991Z,20.53
2022-08-08T20:11:22.059Z,20.56
2022-08-08T20:14:32.729Z,20.72
2022-08-08T20:16:41.151Z,20.47
2022-08-08T20:19:10.947Z,20.69
2022-08-08T20:21:41.704Z,20.74
2022-08-08T20:24:12.443Z,20.77
2022-08-08T20:26:41.845Z,20.69
2022-08-08T20:29:20.761Z,20.85
2022-08-08T20:32:07.681Z,20.60
2022-08-08T20:34:47.977Z,20.70
2022-08-08T20:37:24.705Z,20.43
2022-08-08T20:40:16.769Z,20.65
2022-08-08T20:42:54.692Z,20.52
2022-08-08T20:45:55.057Z,20.61
2022-08-08T20:48:16.621Z,20.58
2022-08-08T20:50:49.587Z,20.35
2022-08-08T20:54:00.657Z,20.59
2022-08-08T20:56:13.991Z,20.42
2022-08-08T20:58:46.872Z,20.46
2022-08-08T21:01:19.501Z,20.29
2022-08-08T21:03:59.980Z,20.47
2022-08-08T21:06:52.954Z,20.53
2022-08-08T21:09:19.868Z,20.36
2022-08-08T21:11:51.553Z,20.31
2022-08-08T21:14:30.499Z,20.50
2022-08-08T21:17:05.948Z,20.44
2022-08-08T21:19:45.854Z,20.56
2022-08-08T21:22:15.463Z,20.54
2022-08-08T21:24:52.833Z,20.50
2022-08-08T21:28:05.263Z,20.29
2022-08-08T21:30:17.886Z,20.42
2022-08-08T21:32:51.572Z,20.37
2022-08-08T21:36:14.269Z,20.52
2022-08-08T21:38:17.151Z,20.29
2022-08-08T21:40:55.230Z,20.03
2022-08-08T21:43:31.095Z,20.16
2022-08-08T21:48:05.918Z,20.04
2022-08-08T21:48:52.702Z,19.85
2022-08-08T21:54:18.178Z,19.80
2022-08-08T21:54:35.368Z,19.73
2022-08-08T21:57:02.719Z,19.72
2022-08-08T22:00:02.039Z,19.86
2022-08-08T22:02:23.312Z,19.68
2022-08-08T22:04:56.115Z,19.79
2022-08-08T22:07:40.358Z,19.66
2022-08-08T22:10:18.382Z,19.44
2022-08-08T22:13:17.658Z,19.67
2022-08-08T22:15:59.089Z,19.68
2022-08-08T22:18:31.900Z,19.73
2022-08-08T22:21:14.202Z,19.65
2022-08-08T22:23:50.761Z,19.68
2022-08-08T22:26:30.035Z,19.65
2022-08-08T22:29:04.512Z,19.57
2022-08-08T22:31:43.982Z,19.36
2022-08-08T22:34:29.253Z,19.49
2022-08-08T22:36:57.418Z,19.44
2022-08-08T22:39:28.266Z,19.61
2022-08-08T22:42:10.243Z,19.46
2022-08-08T22:44:39.783Z,19.47
2022-08-08T22:47:17.590Z,19.49
2022-08-08T22:49:54.223Z,19.26
2022-08-08T22:52:33.314Z,19.27
2022-08-08T22:55:05.576Z,19.23
2022-08-08T22:57:44.432Z,19.19
2022-08-08T23:00:20.011Z,19.24
2022-08-08T23:02:50.248Z,19.24
2022-08-08T23:05:21.428Z,19.09
2022-08-08T23:07:56.947Z,19.36
2022-08-08T23:10:26.655Z,19.27
2022-08-08T23:12:55.278Z,19.16
2022-08-08T23:16:40.755Z,19.23
2022-08-08T23:18:13.893Z,19.24
2022-08-08T23:20:43.563Z,19.06
2022-08-08T23:23:12.611Z,19.06
2022-08-08T23:25:48.538Z,18.91
2022-08-08T23:28:18.874Z,19.05
2022-08-08T23:30:48.775Z,19.15
2022-08-08T23:33:20.899Z,19.05
2022-08-08T23:36:08.903Z,19.12
2022-08-08T23:38:44.207Z,19.09
2022-08-08T23:41:23.206Z,19.05
2022-08-08T23:43:56.875Z,19.13
2022-08-08T23:48:59.779Z,19.06
2022-08-08T23:49:18.876Z,19.11
2022-08-08T23:52:05.910Z,19.09
2022-08-08T23:54:43.352Z,18.87
2022-08-08T23:57:38.779Z,19.04
